sensor_id;sensor_type;location;lat;lon;timestamp;P1;durP1;ratioP1;P2;durP2;ratioP2
3249;SDS011;1637;42.020;23.992;2022-08-07T00:01:30;10.50;;;7.63;;
3249;SDS011;1637;42.020;23.992;2022-08-07T00:03:57;11.83;;;7.90;;
3249;SDS011;1637;42.020;23.992;2022-08-07T00:06:25;10.80;;;9.70;;
3249;SDS011;1637;42.020;23.992;2022-08-07T00:08:52;17.70;;;11.13;;
3249;SDS011;1637;42.020;23.992;2022-08-07T00:11:19;10.30;;;8.10;;
3249;SDS011;1637;42.020;23.992;2022-08-07T00:13:46;9.17;;;8.00;;
3249;SDS011;1637;42.020;23.992;2022-08-07T00:16:13;10.80;;;9.43;;
3249;SDS011;1637;42.020;23.992;2022-08-07T00:18:41;12.07;;;8.47;;
3249;SDS011;1637;42.020;23.992;2022-08-07T00:21:08;9.00;;;8.10;;
3249;SDS011;1637;42.020;23.992;2022-08-07T00:23:37;13.20;;;7.70;;
3249;SDS011;1637;42.020;23.992;2022-08-07T00:26:06;15.40;;;8.40;;
3249;SDS011;1637;42.020;23.992;2022-08-07T00:28:35;11.43;;;8.10;;
3249;SDS011;1637;42.020;23.992;2022-08-07T00:31:04;10.03;;;8.53;;
3249;SDS011;1637;42.020;23.992;2022-08-07T00:33:33;9.40;;;8.03;;
3249;SDS011;1637;42.020;23.992;2022-08-07T00:36:03;8.60;;;7.30;;
3249;SDS011;1637;42.020;23.992;2022-08-07T00:38:31;11.37;;;8.27;;
3249;SDS011;1637;42.020;23.992;2022-08-07T00:41:00;14.77;;;8.57;;
3249;SDS011;1637;42.020;23.992;2022-08-07T00:43:28;11.30;;;8.20;;
3249;SDS011;1637;42.020;23.992;2022-08-07T00:45:55;9.13;;;8.23;;
3249;SDS011;1637;42.020;23.992;2022-08-07T00:48:22;8.70;;;7.80;;
3249;SDS011;1637;42.020;23.992;2022-08-07T00:50:49;9.33;;;8.33;;
3249;SDS011;1637;42.020;23.992;2022-08-07T00:53:18;12.13;;;9.10;;
3249;SDS011;1637;42.020;23.992;2022-08-07T00:55:46;11.77;;;9.37;;
3249;SDS011;1637;42.020;23.992;2022-08-07T00:58:13;8.93;;;8.03;;
3249;SDS011;1637;42.020;23.992;2022-08-07T01:00:40;9.63;;;8.73;;
3249;SDS011;1637;42.020;23.992;2022-08-07T01:03:07;8.70;;;7.80;;
3249;SDS011;1637;42.020;23.992;2022-08-07T01:05:34;8.80;;;7.97;;
3249;SDS011;1637;42.020;23.992;2022-08-07T01:08:02;12.30;;;8.10;;
3249;SDS011;1637;42.020;23.992;2022-08-07T01:10:30;9.17;;;8.17;;
3249;SDS011;1637;42.020;23.992;2022-08-07T01:12:57;10.90;;;7.40;;
3249;SDS011;1637;42.020;23.992;2022-08-07T01:15:24;8.10;;;7.30;;
3249;SDS011;1637;42.020;23.992;2022-08-07T01:17:51;8.20;;;7.30;;
3249;SDS011;1637;42.020;23.992;2022-08-07T01:20:21;8.90;;;7.63;;
3249;SDS011;1637;42.020;23.992;2022-08-07T01:22:58;13.13;;;7.23;;
3249;SDS011;1637;42.020;23.992;2022-08-07T01:25:25;9.80;;;7.10;;
3249;SDS011;1637;42.020;23.992;2022-08-07T01:27:54;12.30;;;11.00;;
3249;SDS011;1637;42.020;23.992;2022-08-07T01:30:21;13.83;;;9.40;;
3249;SDS011;1637;42.020;23.992;2022-08-07T01:32:51;10.00;;;8.10;;
3249;SDS011;1637;42.020;23.992;2022-08-07T01:35:18;11.63;;;9.43;;
3249;SDS011;1637;42.020;23.992;2022-08-07T01:37:45;12.17;;;10.80;;
3249;SDS011;1637;42.020;23.992;2022-08-07T01:40:14;16.30;;;11.57;;
3249;SDS011;1637;42.020;23.992;2022-08-07T01:42:44;12.00;;;10.33;;
3249;SDS011;1637;42.020;23.992;2022-08-07T01:45:12;10.50;;;9.03;;
3249;SDS011;1637;42.020;23.992;2022-08-07T01:47:39;46.30;;;34.57;;
3249;SDS011;1637;42.020;23.992;2022-08-07T01:50:06;32.30;;;22.60;;
3249;SDS011;1637;42.020;23.992;2022-08-07T01:52:33;13.43;;;10.13;;
3249;SDS011;1637;42.020;23.992;2022-08-07T01:55:04;14.00;;;9.70;;
3249;SDS011;1637;42.020;23.992;2022-08-07T01:57:36;12.60;;;9.93;;
3249;SDS011;1637;42.020;23.992;2022-08-07T02:00:07;11.17;;;9.70;;
3249;SDS011;1637;42.020;23.992;2022-08-07T02:02:37;12.20;;;10.73;;
3249;SDS011;1637;42.020;23.992;2022-08-07T02:05:08;11.47;;;9.20;;
3249;SDS011;1637;42.020;23.992;2022-08-07T02:07:40;9.43;;;8.50;;
3249;SDS011;1637;42.020;23.992;2022-08-07T02:10:13;14.60;;;10.27;;
3249;SDS011;1637;42.020;23.992;2022-08-07T02:12:45;14.03;;;10.50;;
3249;SDS011;1637;42.020;23.992;2022-08-07T02:15:14;11.87;;;10.13;;
3249;SDS011;1637;42.020;23.992;2022-08-07T02:17:46;11.70;;;10.13;;
3249;SDS011;1637;42.020;23.992;2022-08-07T02:20:14;21.93;;;13.67;;
3249;SDS011;1637;42.020;23.992;2022-08-07T02:22:43;20.43;;;14.47;;
3249;SDS011;1637;42.020;23.992;2022-08-07T02:25:12;19.60;;;12.50;;
3249;SDS011;1637;42.020;23.992;2022-08-07T02:27:41;16.90;;;12.70;;
3249;SDS011;1637;42.020;23.992;2022-08-07T02:30:12;13.87;;;12.07;;
3249;SDS011;1637;42.020;23.992;2022-08-07T02:32:39;20.73;;;12.47;;
3249;SDS011;1637;42.020;23.992;2022-08-07T02:35:07;16.20;;;11.23;;
3249;SDS011;1637;42.020;23.992;2022-08-07T02:37:36;18.33;;;12.83;;
3249;SDS011;1637;42.020;23.992;2022-08-07T02:40:06;14.27;;;11.40;;
3249;SDS011;1637;42.020;23.992;2022-08-07T02:42:34;14.53;;;11.10;;
3249;SDS011;1637;42.020;23.992;2022-08-07T02:45:04;19.03;;;11.20;;
3249;SDS011;1637;42.020;23.992;2022-08-07T02:47:34;18.63;;;12.73;;
3249;SDS011;1637;42.020;23.992;2022-08-07T02:50:01;17.30;;;11.03;;
3249;SDS011;1637;42.020;23.992;2022-08-07T02:52:31;12.50;;;10.80;;
3249;SDS011;1637;42.020;23.992;2022-08-07T02:55:02;12.57;;;10.80;;
3249;SDS011;1637;42.020;23.992;2022-08-07T02:57:32;10.83;;;9.47;;
3249;SDS011;1637;42.020;23.992;2022-08-07T03:00:04;25.20;;;11.20;;
3249;SDS011;1637;42.020;23.992;2022-08-07T03:02:32;9.67;;;8.73;;
3249;SDS011;1637;42.020;23.992;2022-08-07T03:05:01;21.83;;;9.97;;
3249;SDS011;1637;42.020;23.992;2022-08-07T03:07:29;8.67;;;7.63;;
3249;SDS011;1637;42.020;23.992;2022-08-07T03:09:58;9.40;;;8.40;;
3249;SDS011;1637;42.020;23.992;2022-08-07T03:12:26;11.53;;;9.13;;
3249;SDS011;1637;42.020;23.992;2022-08-07T03:14:54;14.40;;;10.93;;
3249;SDS011;1637;42.020;23.992;2022-08-07T03:17:23;16.03;;;11.20;;
3249;SDS011;1637;42.020;23.992;2022-08-07T03:19:51;15.00;;;11.70;;
3249;SDS011;1637;42.020;23.992;2022-08-07T03:22:18;13.57;;;11.10;;
3249;SDS011;1637;42.020;23.992;2022-08-07T03:24:47;15.83;;;12.80;;
3249;SDS011;1637;42.020;23.992;2022-08-07T03:27:14;20.00;;;11.10;;
3249;SDS011;1637;42.020;23.992;2022-08-07T03:29:44;14.87;;;12.00;;
3249;SDS011;1637;42.020;23.992;2022-08-07T03:32:13;16.93;;;12.97;;
3249;SDS011;1637;42.020;23.992;2022-08-07T03:34:44;17.43;;;12.83;;
3249;SDS011;1637;42.020;23.992;2022-08-07T03:37:13;23.30;;;13.70;;
3249;SDS011;1637;42.020;23.992;2022-08-07T03:39:43;17.80;;;13.60;;
3249;SDS011;1637;42.020;23.992;2022-08-07T03:42:11;15.00;;;12.07;;
3249;SDS011;1637;42.020;23.992;2022-08-07T03:44:39;17.60;;;13.50;;
3249;SDS011;1637;42.020;23.992;2022-08-07T03:47:07;15.10;;;11.67;;
3249;SDS011;1637;42.020;23.992;2022-08-07T03:49:34;16.30;;;13.90;;
3249;SDS011;1637;42.020;23.992;2022-08-07T03:52:03;13.77;;;11.20;;
3249;SDS011;1637;42.020;23.992;2022-08-07T03:54:31;9.77;;;8.90;;
3249;SDS011;1637;42.020;23.992;2022-08-07T03:56:58;15.23;;;10.10;;
3249;SDS011;1637;42.020;23.992;2022-08-07T03:59:25;12.57;;;10.23;;
3249;SDS011;1637;42.020;23.992;2022-08-07T04:01:53;15.30;;;9.50;;
3249;SDS011;1637;42.020;23.992;2022-08-07T04:04:21;11.30;;;10.13;;
3249;SDS011;1637;42.020;23.992;2022-08-07T04:06:48;23.83;;;12.27;;
3249;SDS011;1637;42.020;23.992;2022-08-07T04:09:17;16.07;;;10.63;;
3249;SDS011;1637;42.020;23.992;2022-08-07T04:11:45;24.43;;;12.70;;
3249;SDS011;1637;42.020;23.992;2022-08-07T04:14:15;36.40;;;12.40;;
3249;SDS011;1637;42.020;23.992;2022-08-07T04:16:42;32.67;;;11.97;;
3249;SDS011;1637;42.020;23.992;2022-08-07T04:19:09;16.03;;;12.30;;
3249;SDS011;1637;42.020;23.992;2022-08-07T04:21:36;26.43;;;13.23;;
3249;SDS011;1637;42.020;23.992;2022-08-07T04:24:03;54.57;;;14.00;;
3249;SDS011;1637;42.020;23.992;2022-08-07T04:26:35;17.47;;;13.40;;
3249;SDS011;1637;42.020;23.992;2022-08-07T04:29:05;27.07;;;16.20;;
3249;SDS011;1637;42.020;23.992;2022-08-07T04:31:32;19.80;;;14.77;;
3249;SDS011;1637;42.020;23.992;2022-08-07T04:34:00;20.60;;;14.43;;
3249;SDS011;1637;42.020;23.992;2022-08-07T04:36:27;18.70;;;13.10;;
3249;SDS011;1637;42.020;23.992;2022-08-07T04:38:54;20.50;;;13.67;;
3249;SDS011;1637;42.020;23.992;2022-08-07T04:41:21;10.80;;;9.47;;
3249;SDS011;1637;42.020;23.992;2022-08-07T04:43:49;12.93;;;9.67;;
3249;SDS011;1637;42.020;23.992;2022-08-07T04:46:19;10.73;;;8.40;;
3249;SDS011;1637;42.020;23.992;2022-08-07T04:48:56;11.17;;;8.10;;
3249;SDS011;1637;42.020;23.992;2022-08-07T04:51:37;11.23;;;8.87;;
3249;SDS011;1637;42.020;23.992;2022-08-07T04:54:15;14.10;;;11.53;;
3249;SDS011;1637;42.020;23.992;2022-08-07T04:56:55;14.93;;;10.93;;
3249;SDS011;1637;42.020;23.992;2022-08-07T04:59:31;17.40;;;13.87;;
3249;SDS011;1637;42.020;23.992;2022-08-07T05:02:02;11.10;;;9.07;;
3249;SDS011;1637;42.020;23.992;2022-08-07T05:04:37;10.93;;;8.00;;
3249;SDS011;1637;42.020;23.992;2022-08-07T05:07:10;12.10;;;8.70;;
3249;SDS011;1637;42.020;23.992;2022-08-07T05:09:42;8.60;;;7.53;;
3249;SDS011;1637;42.020;23.992;2022-08-07T05:12:20;14.00;;;8.27;;
3249;SDS011;1637;42.020;23.992;2022-08-07T05:14:55;9.93;;;7.80;;
3249;SDS011;1637;42.020;23.992;2022-08-07T05:17:27;11.23;;;8.80;;
3249;SDS011;1637;42.020;23.992;2022-08-07T05:19:55;11.37;;;10.17;;
3249;SDS011;1637;42.020;23.992;2022-08-07T05:22:23;13.33;;;11.93;;
3249;SDS011;1637;42.020;23.992;2022-08-07T05:24:52;13.43;;;10.63;;
3249;SDS011;1637;42.020;23.992;2022-08-07T05:27:21;11.63;;;10.47;;
3249;SDS011;1637;42.020;23.992;2022-08-07T05:29:49;11.47;;;9.90;;
3249;SDS011;1637;42.020;23.992;2022-08-07T05:32:19;16.13;;;10.73;;
3249;SDS011;1637;42.020;23.992;2022-08-07T05:34:48;14.30;;;10.00;;
3249;SDS011;1637;42.020;23.992;2022-08-07T05:37:17;16.93;;;10.90;;
3249;SDS011;1637;42.020;23.992;2022-08-07T05:39:46;19.27;;;11.53;;
3249;SDS011;1637;42.020;23.992;2022-08-07T05:42:13;15.83;;;9.77;;
3249;SDS011;1637;42.020;23.992;2022-08-07T05:44:41;16.57;;;9.50;;
3249;SDS011;1637;42.020;23.992;2022-08-07T05:47:07;12.83;;;8.73;;
3249;SDS011;1637;42.020;23.992;2022-08-07T05:49:37;10.27;;;8.80;;
3249;SDS011;1637;42.020;23.992;2022-08-07T05:52:05;13.00;;;9.10;;
3249;SDS011;1637;42.020;23.992;2022-08-07T05:54:32;25.23;;;8.87;;
3249;SDS011;1637;42.020;23.992;2022-08-07T05:56:59;16.77;;;9.60;;
3249;SDS011;1637;42.020;23.992;2022-08-07T05:59:27;16.00;;;10.30;;
3249;SDS011;1637;42.020;23.992;2022-08-07T06:01:58;18.17;;;9.90;;
3249;SDS011;1637;42.020;23.992;2022-08-07T06:04:25;13.67;;;9.60;;
3249;SDS011;1637;42.020;23.992;2022-08-07T06:06:55;14.97;;;8.63;;
3249;SDS011;1637;42.020;23.992;2022-08-07T06:09:23;17.63;;;10.07;;
3249;SDS011;1637;42.020;23.992;2022-08-07T06:11:50;11.83;;;8.63;;
3249;SDS011;1637;42.020;23.992;2022-08-07T06:14:17;12.33;;;10.77;;
3249;SDS011;1637;42.020;23.992;2022-08-07T06:16:45;16.77;;;10.67;;
3249;SDS011;1637;42.020;23.992;2022-08-07T06:19:13;12.07;;;10.57;;
3249;SDS011;1637;42.020;23.992;2022-08-07T06:21:42;15.27;;;10.90;;
3249;SDS011;1637;42.020;23.992;2022-08-07T06:24:11;16.80;;;12.17;;
3249;SDS011;1637;42.020;23.992;2022-08-07T06:26:38;13.80;;;11.53;;
3249;SDS011;1637;42.020;23.992;2022-08-07T06:29:05;22.20;;;16.30;;
3249;SDS011;1637;42.020;23.992;2022-08-07T06:31:32;27.07;;;18.90;;
3249;SDS011;1637;42.020;23.992;2022-08-07T06:33:59;14.37;;;12.87;;
3249;SDS011;1637;42.020;23.992;2022-08-07T06:36:26;17.07;;;12.03;;
3249;SDS011;1637;42.020;23.992;2022-08-07T06:38:54;16.50;;;13.00;;
3249;SDS011;1637;42.020;23.992;2022-08-07T06:41:23;13.87;;;12.10;;
3249;SDS011;1637;42.020;23.992;2022-08-07T06:43:53;16.40;;;12.70;;
3249;SDS011;1637;42.020;23.992;2022-08-07T06:46:22;18.57;;;12.70;;
3249;SDS011;1637;42.020;23.992;2022-08-07T06:48:49;12.37;;;11.17;;
3249;SDS011;1637;42.020;23.992;2022-08-07T06:51:17;13.07;;;11.70;;
3249;SDS011;1637;42.020;23.992;2022-08-07T06:53:47;16.50;;;11.57;;
3249;SDS011;1637;42.020;23.992;2022-08-07T06:56:15;16.60;;;11.00;;
3249;SDS011;1637;42.020;23.992;2022-08-07T06:59:05;18.30;;;12.00;;
3249;SDS011;1637;42.020;23.992;2022-08-07T07:01:33;15.07;;;12.80;;
3249;SDS011;1637;42.020;23.992;2022-08-07T07:04:01;18.13;;;12.03;;
3249;SDS011;1637;42.020;23.992;2022-08-07T07:06:29;12.33;;;10.70;;
3249;SDS011;1637;42.020;23.992;2022-08-07T07:11:48;21.20;;;11.87;;
3249;SDS011;1637;42.020;23.992;2022-08-07T07:14:24;12.87;;;11.57;;
3249;SDS011;1637;42.020;23.992;2022-08-07T07:16:55;21.23;;;11.90;;
3249;SDS011;1637;42.020;23.992;2022-08-07T07:19:26;17.53;;;10.77;;
3249;SDS011;1637;42.020;23.992;2022-08-07T07:21:57;15.50;;;11.97;;
3249;SDS011;1637;42.020;23.992;2022-08-07T07:24:25;23.00;;;11.90;;
3249;SDS011;1637;42.020;23.992;2022-08-07T07:26:52;17.00;;;11.63;;
3249;SDS011;1637;42.020;23.992;2022-08-07T07:29:24;22.93;;;11.00;;
3249;SDS011;1637;42.020;23.992;2022-08-07T07:31:55;14.67;;;9.40;;
3249;SDS011;1637;42.020;23.992;2022-08-07T07:34:24;17.97;;;9.63;;
3249;SDS011;1637;42.020;23.992;2022-08-07T07:36:56;10.50;;;9.40;;
3249;SDS011;1637;42.020;23.992;2022-08-07T07:39:25;9.80;;;8.90;;
3249;SDS011;1637;42.020;23.992;2022-08-07T07:41:54;8.93;;;8.03;;
3249;SDS011;1637;42.020;23.992;2022-08-07T07:44:23;17.13;;;10.30;;
3249;SDS011;1637;42.020;23.992;2022-08-07T07:46:52;8.80;;;7.97;;
3249;SDS011;1637;42.020;23.992;2022-08-07T07:49:22;12.67;;;8.77;;
3249;SDS011;1637;42.020;23.992;2022-08-07T07:51:51;15.10;;;8.93;;
3249;SDS011;1637;42.020;23.992;2022-08-07T07:54:21;12.60;;;8.03;;
3249;SDS011;1637;42.020;23.992;2022-08-07T07:56:49;8.90;;;7.67;;
3249;SDS011;1637;42.020;23.992;2022-08-07T07:59:17;9.00;;;8.10;;
3249;SDS011;1637;42.020;23.992;2022-08-07T08:01:47;8.47;;;7.17;;
3249;SDS011;1637;42.020;23.992;2022-08-07T08:04:16;13.50;;;8.73;;
3249;SDS011;1637;42.020;23.992;2022-08-07T08:06:45;9.67;;;7.23;;
3249;SDS011;1637;42.020;23.992;2022-08-07T08:09:13;10.63;;;7.03;;
3249;SDS011;1637;42.020;23.992;2022-08-07T08:11:44;12.87;;;7.13;;
3249;SDS011;1637;42.020;23.992;2022-08-07T08:14:11;22.10;;;7.53;;
3249;SDS011;1637;42.020;23.992;2022-08-07T08:16:39;12.67;;;7.07;;
3249;SDS011;1637;42.020;23.992;2022-08-07T08:19:11;10.40;;;7.60;;
3249;SDS011;1637;42.020;23.992;2022-08-07T08:21:40;20.20;;;8.23;;
3249;SDS011;1637;42.020;23.992;2022-08-07T08:24:30;13.40;;;7.63;;
3249;SDS011;1637;42.020;23.992;2022-08-07T08:27:17;12.20;;;7.00;;
3249;SDS011;1637;42.020;23.992;2022-08-07T08:29:47;6.90;;;6.20;;
3249;SDS011;1637;42.020;23.992;2022-08-07T08:32:19;15.80;;;10.47;;
3249;SDS011;1637;42.020;23.992;2022-08-07T08:34:50;11.77;;;6.27;;
3249;SDS011;1637;42.020;23.992;2022-08-07T08:37:19;9.77;;;7.73;;
3249;SDS011;1637;42.020;23.992;2022-08-07T08:39:48;8.87;;;7.33;;
3249;SDS011;1637;42.020;23.992;2022-08-07T08:42:20;9.50;;;6.90;;
3249;SDS011;1637;42.020;23.992;2022-08-07T08:44:53;10.77;;;8.07;;
3249;SDS011;1637;42.020;23.992;2022-08-07T08:47:29;9.23;;;6.47;;
3249;SDS011;1637;42.020;23.992;2022-08-07T08:50:08;11.70;;;8.30;;
3249;SDS011;1637;42.020;23.992;2022-08-07T08:52:47;22.20;;;10.37;;
3249;SDS011;1637;42.020;23.992;2022-08-07T08:55:20;13.60;;;9.67;;
3249;SDS011;1637;42.020;23.992;2022-08-07T08:57:54;10.53;;;7.57;;
3249;SDS011;1637;42.020;23.992;2022-08-07T09:00:29;9.70;;;7.47;;
3249;SDS011;1637;42.020;23.992;2022-08-07T09:03:01;10.30;;;8.80;;
3249;SDS011;1637;42.020;23.992;2022-08-07T09:05:39;11.07;;;8.50;;
3249;SDS011;1637;42.020;23.992;2022-08-07T09:08:20;9.30;;;8.00;;
3249;SDS011;1637;42.020;23.992;2022-08-07T09:10:59;12.13;;;9.83;;
3249;SDS011;1637;42.020;23.992;2022-08-07T09:13:38;11.70;;;9.63;;
3249;SDS011;1637;42.020;23.992;2022-08-07T09:16:14;13.90;;;10.00;;
3249;SDS011;1637;42.020;23.992;2022-08-07T09:19:03;12.90;;;9.70;;
3249;SDS011;1637;42.020;23.992;2022-08-07T09:21:42;11.67;;;9.10;;
3249;SDS011;1637;42.020;23.992;2022-08-07T09:24:16;12.73;;;8.57;;
3249;SDS011;1637;42.020;23.992;2022-08-07T09:26:55;9.87;;;8.87;;
3249;SDS011;1637;42.020;23.992;2022-08-07T09:29:32;12.00;;;9.60;;
3249;SDS011;1637;42.020;23.992;2022-08-07T09:32:14;15.57;;;10.10;;
3249;SDS011;1637;42.020;23.992;2022-08-07T09:34:49;15.80;;;9.80;;
3249;SDS011;1637;42.020;23.992;2022-08-07T09:37:27;10.97;;;9.73;;
3249;SDS011;1637;42.020;23.992;2022-08-07T09:40:05;12.03;;;10.20;;
3249;SDS011;1637;42.020;23.992;2022-08-07T09:42:42;12.20;;;9.40;;
3249;SDS011;1637;42.020;23.992;2022-08-07T09:45:17;11.57;;;10.33;;
3249;SDS011;1637;42.020;23.992;2022-08-07T09:47:50;13.77;;;9.30;;
3249;SDS011;1637;42.020;23.992;2022-08-07T09:50:34;11.93;;;9.20;;
3249;SDS011;1637;42.020;23.992;2022-08-07T09:53:10;16.70;;;11.53;;
3249;SDS011;1637;42.020;23.992;2022-08-07T09:55:47;12.80;;;10.43;;
3249;SDS011;1637;42.020;23.992;2022-08-07T09:58:47;9.73;;;8.73;;
3249;SDS011;1637;42.020;23.992;2022-08-07T10:01:31;11.87;;;9.63;;
3249;SDS011;1637;42.020;23.992;2022-08-07T10:04:21;13.67;;;12.20;;
3249;SDS011;1637;42.020;23.992;2022-08-07T10:07:04;14.23;;;10.30;;
3249;SDS011;1637;42.020;23.992;2022-08-07T10:09:53;13.90;;;10.57;;
3249;SDS011;1637;42.020;23.992;2022-08-07T10:12:39;15.07;;;9.60;;
3249;SDS011;1637;42.020;23.992;2022-08-07T10:15:31;17.13;;;10.30;;
3249;SDS011;1637;42.020;23.992;2022-08-07T10:18:07;10.87;;;8.20;;
3249;SDS011;1637;42.020;23.992;2022-08-07T10:20:51;13.83;;;12.40;;
3249;SDS011;1637;42.020;23.992;2022-08-07T10:23:33;12.40;;;8.00;;
3249;SDS011;1637;42.020;23.992;2022-08-07T10:26:20;8.03;;;7.23;;
3249;SDS011;1637;42.020;23.992;2022-08-07T10:28:58;8.17;;;7.20;;
3249;SDS011;1637;42.020;23.992;2022-08-07T10:31:48;8.03;;;6.83;;
3249;SDS011;1637;42.020;23.992;2022-08-07T10:34:34;10.57;;;6.80;;
3249;SDS011;1637;42.020;23.992;2022-08-07T10:37:14;19.23;;;8.80;;
3249;SDS011;1637;42.020;23.992;2022-08-07T10:39:55;11.13;;;6.30;;
3249;SDS011;1637;42.020;23.992;2022-08-07T10:42:31;14.03;;;7.33;;
3249;SDS011;1637;42.020;23.992;2022-08-07T10:45:08;7.30;;;6.60;;
3249;SDS011;1637;42.020;23.992;2022-08-07T10:47:44;8.60;;;7.50;;
3249;SDS011;1637;42.020;23.992;2022-08-07T10:50:19;10.90;;;7.57;;
3249;SDS011;1637;42.020;23.992;2022-08-07T10:52:54;9.60;;;7.70;;
3249;SDS011;1637;42.020;23.992;2022-08-07T10:55:27;13.53;;;7.07;;
3249;SDS011;1637;42.020;23.992;2022-08-07T10:58:04;6.07;;;5.47;;
3249;SDS011;1637;42.020;23.992;2022-08-07T11:00:44;7.00;;;5.70;;
3249;SDS011;1637;42.020;23.992;2022-08-07T11:03:17;7.27;;;6.57;;
3249;SDS011;1637;42.020;23.992;2022-08-07T11:05:51;8.93;;;7.43;;
3249;SDS011;1637;42.020;23.992;2022-08-07T11:08:25;11.23;;;8.20;;
3249;SDS011;1637;42.020;23.992;2022-08-07T11:11:10;8.13;;;5.87;;
3249;SDS011;1637;42.020;23.992;2022-08-07T11:13:46;7.00;;;6.30;;
3249;SDS011;1637;42.020;23.992;2022-08-07T11:16:18;10.20;;;7.27;;
3249;SDS011;1637;42.020;23.992;2022-08-07T11:18:49;15.93;;;7.27;;
3249;SDS011;1637;42.020;23.992;2022-08-07T11:21:24;9.03;;;7.53;;
3249;SDS011;1637;42.020;23.992;2022-08-07T11:23:58;9.50;;;6.80;;
3249;SDS011;1637;42.020;23.992;2022-08-07T11:26:30;9.03;;;7.17;;
3249;SDS011;1637;42.020;23.992;2022-08-07T11:29:04;6.80;;;6.10;;
3249;SDS011;1637;42.020;23.992;2022-08-07T11:31:36;9.73;;;5.80;;
3249;SDS011;1637;42.020;23.992;2022-08-07T11:34:15;6.50;;;5.83;;
3249;SDS011;1637;42.020;23.992;2022-08-07T11:36:48;11.23;;;6.53;;
3249;SDS011;1637;42.020;23.992;2022-08-07T11:39:35;7.30;;;6.03;;
3249;SDS011;1637;42.020;23.992;2022-08-07T11:42:12;9.63;;;5.77;;
3249;SDS011;1637;42.020;23.992;2022-08-07T11:44:46;16.23;;;7.80;;
3249;SDS011;1637;42.020;23.992;2022-08-07T11:47:22;9.30;;;6.03;;
3249;SDS011;1637;42.020;23.992;2022-08-07T11:50:15;14.90;;;6.73;;
3249;SDS011;1637;42.020;23.992;2022-08-07T11:53:01;12.30;;;6.37;;
3249;SDS011;1637;42.020;23.992;2022-08-07T11:55:42;10.50;;;5.80;;
3249;SDS011;1637;42.020;23.992;2022-08-07T11:58:29;8.27;;;5.20;;
3249;SDS011;1637;42.020;23.992;2022-08-07T12:01:12;10.40;;;5.27;;
3249;SDS011;1637;42.020;23.992;2022-08-07T12:03:55;6.67;;;6.07;;
3249;SDS011;1637;42.020;23.992;2022-08-07T12:06:37;7.63;;;5.20;;
3249;SDS011;1637;42.020;23.992;2022-08-07T12:09:12;7.97;;;4.70;;
3249;SDS011;1637;42.020;23.992;2022-08-07T12:11:45;5.80;;;5.07;;
3249;SDS011;1637;42.020;23.992;2022-08-07T12:14:18;4.97;;;4.47;;
3249;SDS011;1637;42.020;23.992;2022-08-07T12:16:49;10.10;;;6.90;;
3249;SDS011;1637;42.020;23.992;2022-08-07T12:19:20;7.17;;;5.50;;
3249;SDS011;1637;42.020;23.992;2022-08-07T12:21:58;7.70;;;6.17;;
3249;SDS011;1637;42.020;23.992;2022-08-07T12:24:32;7.60;;;5.97;;
3249;SDS011;1637;42.020;23.992;2022-08-07T12:27:06;6.10;;;5.50;;
3249;SDS011;1637;42.020;23.992;2022-08-07T12:29:37;15.73;;;5.43;;
3249;SDS011;1637;42.020;23.992;2022-08-07T12:32:13;6.33;;;5.73;;
3249;SDS011;1637;42.020;23.992;2022-08-07T12:34:44;10.10;;;5.77;;
3249;SDS011;1637;42.020;23.992;2022-08-07T12:37:13;12.13;;;6.63;;
3249;SDS011;1637;42.020;23.992;2022-08-07T12:39:43;9.80;;;6.50;;
3249;SDS011;1637;42.020;23.992;2022-08-07T12:42:13;8.20;;;6.57;;
3249;SDS011;1637;42.020;23.992;2022-08-07T12:44:43;6.57;;;5.57;;
3249;SDS011;1637;42.020;23.992;2022-08-07T12:47:17;13.87;;;6.13;;
3249;SDS011;1637;42.020;23.992;2022-08-07T12:49:51;11.93;;;6.93;;
3249;SDS011;1637;42.020;23.992;2022-08-07T12:52:27;7.70;;;5.70;;
3249;SDS011;1637;42.020;23.992;2022-08-07T12:55:06;5.83;;;5.23;;
3249;SDS011;1637;42.020;23.992;2022-08-07T12:57:36;6.33;;;5.70;;
3249;SDS011;1637;42.020;23.992;2022-08-07T13:00:05;9.30;;;5.50;;
3249;SDS011;1637;42.020;23.992;2022-08-07T13:02:49;7.47;;;6.27;;
3249;SDS011;1637;42.020;23.992;2022-08-07T13:05:52;13.37;;;5.57;;
3249;SDS011;1637;42.020;23.992;2022-08-07T13:08:34;7.47;;;5.77;;
3249;SDS011;1637;42.020;23.992;2022-08-07T13:11:10;8.40;;;5.90;;
3249;SDS011;1637;42.020;23.992;2022-08-07T13:13:57;16.33;;;10.20;;
3249;SDS011;1637;42.020;23.992;2022-08-07T13:16:30;13.17;;;8.63;;
3249;SDS011;1637;42.020;23.992;2022-08-07T13:19:05;10.53;;;6.83;;
3249;SDS011;1637;42.020;23.992;2022-08-07T13:21:42;7.50;;;6.67;;
3249;SDS011;1637;42.020;23.992;2022-08-07T13:24:17;15.63;;;6.00;;
3249;SDS011;1637;42.020;23.992;2022-08-07T13:26:48;7.70;;;6.90;;
3249;SDS011;1637;42.020;23.992;2022-08-07T13:29:20;7.50;;;6.23;;
3249;SDS011;1637;42.020;23.992;2022-08-07T13:31:51;8.80;;;6.80;;
3249;SDS011;1637;42.020;23.992;2022-08-07T13:34:28;11.10;;;6.83;;
3249;SDS011;1637;42.020;23.992;2022-08-07T13:37:03;12.83;;;6.50;;
3249;SDS011;1637;42.020;23.992;2022-08-07T13:39:38;6.97;;;6.27;;
3249;SDS011;1637;42.020;23.992;2022-08-07T13:42:11;7.70;;;6.07;;
3249;SDS011;1637;42.020;23.992;2022-08-07T13:44:40;5.90;;;5.30;;
3249;SDS011;1637;42.020;23.992;2022-08-07T13:47:09;6.20;;;5.63;;
3249;SDS011;1637;42.020;23.992;2022-08-07T13:49:41;14.53;;;5.83;;
3249;SDS011;1637;42.020;23.992;2022-08-07T13:52:10;8.23;;;6.20;;
3249;SDS011;1637;42.020;23.992;2022-08-07T13:54:39;5.33;;;4.83;;
3249;SDS011;1637;42.020;23.992;2022-08-07T13:57:08;5.93;;;5.33;;
3249;SDS011;1637;42.020;23.992;2022-08-07T13:59:38;4.93;;;4.53;;
3249;SDS011;1637;42.020;23.992;2022-08-07T14:02:09;5.30;;;4.80;;
3249;SDS011;1637;42.020;23.992;2022-08-07T14:04:47;6.00;;;5.40;;
3249;SDS011;1637;42.020;23.992;2022-08-07T14:07:18;5.93;;;4.60;;
3249;SDS011;1637;42.020;23.992;2022-08-07T14:09:47;8.70;;;5.30;;
3249;SDS011;1637;42.020;23.992;2022-08-07T14:12:21;5.87;;;4.90;;
3249;SDS011;1637;42.020;23.992;2022-08-07T14:14:52;6.33;;;5.20;;
3249;SDS011;1637;42.020;23.992;2022-08-07T14:17:23;5.93;;;5.27;;
3249;SDS011;1637;42.020;23.992;2022-08-07T14:19:54;6.30;;;5.37;;
3249;SDS011;1637;42.020;23.992;2022-08-07T14:22:24;7.17;;;5.70;;
3249;SDS011;1637;42.020;23.992;2022-08-07T14:24:56;9.13;;;6.10;;
3249;SDS011;1637;42.020;23.992;2022-08-07T14:27:27;6.23;;;5.27;;
3249;SDS011;1637;42.020;23.992;2022-08-07T14:30:02;5.33;;;4.83;;
3249;SDS011;1637;42.020;23.992;2022-08-07T14:32:35;5.53;;;5.00;;
3249;SDS011;1637;42.020;23.992;2022-08-07T14:35:08;5.00;;;4.60;;
3249;SDS011;1637;42.020;23.992;2022-08-07T14:37:37;6.97;;;5.90;;
3249;SDS011;1637;42.020;23.992;2022-08-07T14:40:06;5.30;;;4.80;;
3249;SDS011;1637;42.020;23.992;2022-08-07T14:42:40;6.17;;;5.33;;
3249;SDS011;1637;42.020;23.992;2022-08-07T14:45:08;8.80;;;4.40;;
3249;SDS011;1637;42.020;23.992;2022-08-07T14:47:37;7.60;;;4.80;;
3249;SDS011;1637;42.020;23.992;2022-08-07T14:50:05;8.73;;;6.90;;
3249;SDS011;1637;42.020;23.992;2022-08-07T14:52:36;5.03;;;4.63;;
3249;SDS011;1637;42.020;23.992;2022-08-07T14:55:04;6.13;;;5.13;;
3249;SDS011;1637;42.020;23.992;2022-08-07T14:57:33;8.73;;;6.00;;
3249;SDS011;1637;42.020;23.992;2022-08-07T15:00:01;7.97;;;5.63;;
3249;SDS011;1637;42.020;23.992;2022-08-07T15:02:29;11.33;;;6.77;;
3249;SDS011;1637;42.020;23.992;2022-08-07T15:04:57;7.43;;;6.60;;
3249;SDS011;1637;42.020;23.992;2022-08-07T15:07:25;8.23;;;6.80;;
3249;SDS011;1637;42.020;23.992;2022-08-07T15:09:55;9.93;;;6.20;;
3249;SDS011;1637;42.020;23.992;2022-08-07T15:12:23;12.43;;;6.47;;
3249;SDS011;1637;42.020;23.992;2022-08-07T15:14:58;8.83;;;6.30;;
3249;SDS011;1637;42.020;23.992;2022-08-07T15:17:30;10.67;;;6.40;;
3249;SDS011;1637;42.020;23.992;2022-08-07T15:20:02;9.77;;;6.90;;